Loomis, Nebraska
Current Conditions -  °F | °C
As of 5:35 AM on Thursday 18 Dec 2014 (Local Time) from KHDE Reporting Station
Overcast Overcast  
Wind Chill: 24°   Ceiling: 600
Heat Index: 24°   Visibility: 7mi
Dew Point: 22°   Wind: 0mph
Humidity: 93%   Direction: NA
Pressure: 30.12"   Gusts: NA
Location:  40.48°N, 99.51°W
Report Text: KHDE 181135Z AUTO 00000KT 7SM OVC006 M04/M05 A3012 RMK AO2 T10431053
Loading
Personal Weather Stations






























Interactive Weather Map New forecast layout! Learn more

10-Day Weather Forecast

Advertisements
Track Severe Weather on mobile